ENT44P LOWI-EPRZ
Flight info
| Callsign | ENT44P |
|---|---|
| Flight time | 1h 12m |
| Altitude | 35000 |
| Route | RTT DCT LEDVA DCT NETIR Z121 SKAVI L984 LUXAR |
| Aircraft | B738/M-SDE2E3FGHIRWXY/LB1 |
Departure
| Time | 2026-05-05 07:48 |
|---|---|
| Airport | Innsbruck Airport (LOWI) |
Arrival
| Time | 2026-05-05 09:00 |
|---|---|
| Airport | Rzeszów-Jasionka Airport (EPRZ) |
| Time | Latitude | Longitude | Altitude | Speed | Heading |
|---|---|---|---|---|---|
| 2026-05-05 07:36 | 47.25838 | 11.35176 | 1906 ft | 0 kts | 171° |
| 2026-05-05 07:40 | 47.25840 | 11.35176 | 1906 ft | 1 kts | 171° |
| 2026-05-05 07:40 | 47.25858 | 11.35172 | 1891 ft | 3 kts | 171° |
| 2026-05-05 07:41 | 47.25878 | 11.35167 | 1892 ft | 3 kts | 168° |
| 2026-05-05 07:41 | 47.25890 | 11.35164 | 1899 ft | 3 kts | 108° |
| 2026-05-05 07:41 | 47.25891 | 11.35166 | 1899 ft | 1 kts | 81° |
| 2026-05-05 07:41 | 47.25889 | 11.35143 | 1894 ft | 2 kts | 81° |
| 2026-05-05 07:42 | 47.25888 | 11.35132 | 1901 ft | 0 kts | 81° |
| 2026-05-05 07:44 | 47.25888 | 11.35136 | 1901 ft | 2 kts | 81° |
| 2026-05-05 07:44 | 47.25895 | 11.35199 | 1896 ft | 11 kts | 81° |
| 2026-05-05 07:45 | 47.25923 | 11.35284 | 1906 ft | 6 kts | 11° |
| 2026-05-05 07:45 | 47.25979 | 11.35277 | 1900 ft | 13 kts | 352° |
| 2026-05-05 07:45 | 47.26067 | 11.35258 | 1893 ft | 5 kts | 352° |
| 2026-05-05 07:45 | 47.26106 | 11.35265 | 1898 ft | 6 kts | 36° |
| 2026-05-05 07:46 | 47.26124 | 11.35371 | 1891 ft | 19 kts | 81° |
| 2026-05-05 07:46 | 47.26141 | 11.35564 | 1897 ft | 15 kts | 98° |
| 2026-05-05 07:46 | 47.26108 | 11.35653 | 1889 ft | 10 kts | 85° |
| 2026-05-05 07:46 | 47.26143 | 11.35725 | 1900 ft | 8 kts | 350° |
| 2026-05-05 07:47 | 47.26152 | 11.35635 | 1893 ft | 13 kts | 262° |
| 2026-05-05 07:47 | 47.26135 | 11.35465 | 1895 ft | 20 kts | 262° |
| 2026-05-05 07:47 | 47.26081 | 11.34963 | 1897 ft | 85 kts | 261° |
| 2026-05-05 07:47 | 47.25950 | 11.33786 | 1948 ft | 141 kts | 259° |
| 2026-05-05 07:48 | 47.25786 | 11.32255 | 2276 ft | 172 kts | 261° |
| 2026-05-05 07:48 | 47.25898 | 11.30467 | 3099 ft | 173 kts | 276° |
| 2026-05-05 07:48 | 47.26043 | 11.28805 | 4193 ft | 157 kts | 274° |
| 2026-05-05 07:48 | 47.26160 | 11.27180 | 4999 ft | 155 kts | 274° |
| 2026-05-05 07:49 | 47.25949 | 11.25691 | 5884 ft | 158 kts | 239° |
| 2026-05-05 07:49 | 47.25038 | 11.24600 | 6239 ft | 183 kts | 196° |
| 2026-05-05 07:49 | 47.23790 | 11.24706 | 7131 ft | 181 kts | 157° |
| 2026-05-05 07:49 | 47.22923 | 11.26010 | 8031 ft | 188 kts | 113° |
| 2026-05-05 07:50 | 47.22952 | 11.27944 | 8868 ft | 197 kts | 72° |
| 2026-05-05 07:50 | 47.23450 | 11.29826 | 9641 ft | 208 kts | 73° |
| 2026-05-05 07:50 | 47.23943 | 11.31849 | 9925 ft | 208 kts | 74° |
| 2026-05-05 07:50 | 47.24421 | 11.33888 | 10008 ft | 214 kts | 74° |
| 2026-05-05 07:51 | 47.24902 | 11.35987 | 10184 ft | 217 kts | 75° |
| 2026-05-05 07:51 | 47.25383 | 11.38141 | 10646 ft | 231 kts | 75° |
| 2026-05-05 07:51 | 47.25906 | 11.40534 | 10869 ft | 257 kts | 75° |
| 2026-05-05 07:51 | 47.26484 | 11.43197 | 11020 ft | 290 kts | 74° |
| 2026-05-05 07:52 | 47.27131 | 11.46169 | 11295 ft | 318 kts | 75° |
| 2026-05-05 07:52 | 47.27835 | 11.49409 | 11522 ft | 345 kts | 74° |
| 2026-05-05 07:52 | 47.28592 | 11.52897 | 11817 ft | 368 kts | 74° |
| 2026-05-05 07:52 | 47.29383 | 11.56537 | 12533 ft | 376 kts | 74° |
| 2026-05-05 07:53 | 47.30183 | 11.60240 | 13336 ft | 382 kts | 74° |
| 2026-05-05 07:53 | 47.30997 | 11.63991 | 14229 ft | 384 kts | 72° |
| 2026-05-05 07:53 | 47.32137 | 11.67600 | 14965 ft | 393 kts | 61° |
| 2026-05-05 07:53 | 47.33551 | 11.71001 | 15843 ft | 395 kts | 59° |
| 2026-05-05 07:54 | 47.35027 | 11.74444 | 16588 ft | 400 kts | 59° |
| 2026-05-05 07:54 | 47.36514 | 11.77942 | 17372 ft | 403 kts | 59° |
| 2026-05-05 07:54 | 47.37992 | 11.81487 | 18118 ft | 408 kts | 60° |
| 2026-05-05 07:54 | 47.39473 | 11.85095 | 18754 ft | 413 kts | 60° |
| 2026-05-05 07:55 | 47.40961 | 11.88744 | 19452 ft | 416 kts | 60° |
| 2026-05-05 07:55 | 47.42454 | 11.92423 | 20105 ft | 419 kts | 60° |
| 2026-05-05 07:55 | 47.43897 | 11.96192 | 20705 ft | 424 kts | 64° |
| 2026-05-05 07:55 | 47.45157 | 12.00152 | 21313 ft | 428 kts | 67° |
| 2026-05-05 07:56 | 47.46329 | 12.04220 | 21903 ft | 432 kts | 68° |
| 2026-05-05 07:56 | 47.47479 | 12.08344 | 22500 ft | 436 kts | 68° |
| 2026-05-05 07:56 | 47.48642 | 12.12510 | 23076 ft | 440 kts | 68° |
| 2026-05-05 07:56 | 47.49829 | 12.16715 | 23610 ft | 445 kts | 68° |
| 2026-05-05 07:57 | 47.51040 | 12.20951 | 24105 ft | 449 kts | 67° |
| 2026-05-05 07:57 | 47.52270 | 12.25212 | 24598 ft | 452 kts | 67° |
| 2026-05-05 07:57 | 47.53520 | 12.29515 | 25087 ft | 456 kts | 67° |
| 2026-05-05 07:57 | 47.54779 | 12.33840 | 25519 ft | 460 kts | 67° |
| 2026-05-05 07:58 | 47.56034 | 12.38147 | 25949 ft | 464 kts | 67° |
| 2026-05-05 07:58 | 47.57328 | 12.42602 | 26400 ft | 466 kts | 67° |
| 2026-05-05 07:58 | 47.58598 | 12.46977 | 26803 ft | 470 kts | 67° |
| 2026-05-05 07:58 | 47.59892 | 12.51447 | 27211 ft | 474 kts | 67° |
| 2026-05-05 07:59 | 47.61192 | 12.55945 | 27639 ft | 477 kts | 67° |
| 2026-05-05 07:59 | 47.62500 | 12.60482 | 28024 ft | 480 kts | 67° |
| 2026-05-05 07:59 | 47.63814 | 12.65050 | 28407 ft | 483 kts | 67° |
| 2026-05-05 07:59 | 47.65134 | 12.69647 | 28778 ft | 486 kts | 67° |
| 2026-05-05 08:00 | 47.66459 | 12.74271 | 29111 ft | 489 kts | 67° |
| 2026-05-05 08:00 | 47.67791 | 12.78926 | 29476 ft | 491 kts | 67° |
| 2026-05-05 08:00 | 47.69127 | 12.83606 | 29863 ft | 493 kts | 67° |
| 2026-05-05 08:00 | 47.70459 | 12.88281 | 30393 ft | 489 kts | 67° |
| 2026-05-05 08:01 | 47.71777 | 12.92917 | 30949 ft | 485 kts | 67° |
| 2026-05-05 08:01 | 47.73087 | 12.97530 | 31429 ft | 483 kts | 67° |
| 2026-05-05 08:01 | 47.74390 | 13.02131 | 31812 ft | 483 kts | 67° |
| 2026-05-05 08:01 | 47.75692 | 13.06736 | 32213 ft | 483 kts | 68° |
| 2026-05-05 08:02 | 47.76989 | 13.11334 | 32641 ft | 481 kts | 68° |
| 2026-05-05 08:02 | 47.78262 | 13.15852 | 33104 ft | 480 kts | 68° |
| 2026-05-05 08:02 | 47.79550 | 13.20432 | 33560 ft | 478 kts | 68° |
| 2026-05-05 08:02 | 47.80830 | 13.24993 | 33953 ft | 478 kts | 68° |
| 2026-05-05 08:03 | 47.82106 | 13.29551 | 34277 ft | 478 kts | 68° |
| 2026-05-05 08:03 | 47.83382 | 13.34117 | 34601 ft | 478 kts | 68° |
| 2026-05-05 08:03 | 47.84659 | 13.38691 | 34873 ft | 479 kts | 68° |
| 2026-05-05 08:03 | 47.85942 | 13.43298 | 34853 ft | 483 kts | 68° |
| 2026-05-05 08:04 | 47.88508 | 13.52540 | 34864 ft | 480 kts | 68° |
| 2026-05-05 08:04 | 47.91035 | 13.61677 | 34862 ft | 475 kts | 68° |
| 2026-05-05 08:05 | 47.93546 | 13.70791 | 34860 ft | 475 kts | 68° |
| 2026-05-05 08:05 | 47.96031 | 13.79843 | 34869 ft | 474 kts | 68° |
| 2026-05-05 08:06 | 47.98521 | 13.88951 | 34864 ft | 474 kts | 68° |
| 2026-05-05 08:06 | 48.01007 | 13.98078 | 34866 ft | 475 kts | 68° |
| 2026-05-05 08:07 | 48.03488 | 14.07221 | 34860 ft | 475 kts | 68° |
| 2026-05-05 08:07 | 48.05967 | 14.16393 | 34863 ft | 476 kts | 68° |
| 2026-05-05 08:08 | 48.08442 | 14.25590 | 34861 ft | 477 kts | 68° |
| 2026-05-05 08:08 | 48.10915 | 14.34811 | 34860 ft | 477 kts | 68° |
| 2026-05-05 08:09 | 48.13380 | 14.44041 | 34861 ft | 478 kts | 68° |
| 2026-05-05 08:09 | 48.15823 | 14.53225 | 34860 ft | 478 kts | 68° |
| 2026-05-05 08:10 | 48.18277 | 14.62485 | 34864 ft | 478 kts | 68° |
| 2026-05-05 08:10 | 48.20722 | 14.71747 | 34863 ft | 478 kts | 68° |
| 2026-05-05 08:11 | 48.23157 | 14.81011 | 34863 ft | 478 kts | 68° |
| 2026-05-05 08:11 | 48.25590 | 14.90301 | 34857 ft | 477 kts | 69° |
| 2026-05-05 08:12 | 48.27993 | 14.99518 | 34857 ft | 477 kts | 69° |
| 2026-05-05 08:12 | 48.30405 | 15.08804 | 34861 ft | 476 kts | 69° |
| 2026-05-05 08:13 | 48.32803 | 15.18075 | 34862 ft | 475 kts | 69° |
| 2026-05-05 08:13 | 48.35188 | 15.27332 | 34865 ft | 474 kts | 69° |
| 2026-05-05 08:14 | 48.37565 | 15.36596 | 34870 ft | 474 kts | 69° |
| 2026-05-05 08:14 | 48.39927 | 15.45838 | 34861 ft | 473 kts | 69° |
| 2026-05-05 08:15 | 48.42276 | 15.55070 | 34857 ft | 472 kts | 69° |
| 2026-05-05 08:15 | 48.44617 | 15.64305 | 34867 ft | 471 kts | 69° |
| 2026-05-05 08:16 | 48.46944 | 15.73523 | 34872 ft | 470 kts | 69° |
| 2026-05-05 08:16 | 48.49246 | 15.82679 | 34871 ft | 470 kts | 69° |
| 2026-05-05 08:17 | 48.51556 | 15.91904 | 34881 ft | 470 kts | 69° |
| 2026-05-05 08:17 | 48.53861 | 16.01148 | 34873 ft | 471 kts | 70° |
| 2026-05-05 08:18 | 48.56159 | 16.10401 | 34877 ft | 471 kts | 70° |
| 2026-05-05 08:18 | 48.58452 | 16.19673 | 34872 ft | 472 kts | 70° |
| 2026-05-05 08:19 | 48.60743 | 16.28975 | 34869 ft | 472 kts | 70° |
| 2026-05-05 08:19 | 48.63025 | 16.38279 | 34877 ft | 472 kts | 70° |
| 2026-05-05 08:20 | 48.65305 | 16.47616 | 34879 ft | 473 kts | 70° |
| 2026-05-05 08:20 | 48.67558 | 16.56882 | 34887 ft | 473 kts | 70° |
| 2026-05-05 08:21 | 48.69827 | 16.66250 | 34879 ft | 473 kts | 70° |
| 2026-05-05 08:21 | 48.72103 | 16.75602 | 34884 ft | 474 kts | 68° |
| 2026-05-05 08:22 | 48.74757 | 16.82847 | 34875 ft | 474 kts | 53° |
| 2026-05-05 08:22 | 48.78841 | 16.90672 | 34891 ft | 473 kts | 51° |
| 2026-05-05 08:23 | 48.82978 | 16.98451 | 34886 ft | 474 kts | 51° |
| 2026-05-05 08:23 | 48.87072 | 17.06278 | 34888 ft | 474 kts | 51° |
| 2026-05-05 08:24 | 48.91154 | 17.14183 | 34884 ft | 474 kts | 52° |
| 2026-05-05 08:24 | 48.95216 | 17.22094 | 34880 ft | 475 kts | 52° |
| 2026-05-05 08:25 | 48.99257 | 17.29989 | 34883 ft | 476 kts | 52° |
| 2026-05-05 08:25 | 49.03325 | 17.37953 | 34884 ft | 476 kts | 52° |
| 2026-05-05 08:26 | 49.07399 | 17.45954 | 34883 ft | 477 kts | 52° |
| 2026-05-05 08:26 | 49.11473 | 17.53976 | 34886 ft | 478 kts | 52° |
| 2026-05-05 08:27 | 49.15546 | 17.62021 | 34893 ft | 478 kts | 52° |
| 2026-05-05 08:27 | 49.19613 | 17.70080 | 34892 ft | 479 kts | 52° |
| 2026-05-05 08:28 | 49.23683 | 17.78169 | 34895 ft | 479 kts | 52° |
| 2026-05-05 08:28 | 49.27745 | 17.86264 | 34903 ft | 479 kts | 52° |
| 2026-05-05 08:29 | 49.31801 | 17.94376 | 34899 ft | 479 kts | 52° |
| 2026-05-05 08:30 | 49.37874 | 18.06565 | 34895 ft | 479 kts | 52° |
| 2026-05-05 08:30 | 49.41886 | 18.14649 | 34898 ft | 479 kts | 52° |
| 2026-05-05 08:31 | 49.45923 | 18.22807 | 34903 ft | 479 kts | 52° |
| 2026-05-05 08:31 | 49.49951 | 18.30974 | 34899 ft | 479 kts | 52° |
| 2026-05-05 08:32 | 49.53972 | 18.39149 | 34893 ft | 478 kts | 52° |
| 2026-05-05 08:32 | 49.57978 | 18.47321 | 34885 ft | 478 kts | 52° |
| 2026-05-05 08:33 | 49.61957 | 18.55462 | 34891 ft | 478 kts | 52° |
| 2026-05-05 08:33 | 49.65949 | 18.63655 | 34896 ft | 477 kts | 52° |
| 2026-05-05 08:34 | 49.69643 | 18.72165 | 34893 ft | 478 kts | 63° |
| 2026-05-05 08:34 | 49.71914 | 18.81788 | 34903 ft | 477 kts | 73° |
| 2026-05-05 08:35 | 49.73878 | 18.91571 | 34909 ft | 476 kts | 73° |
| 2026-05-05 08:35 | 49.75883 | 19.01338 | 34901 ft | 477 kts | 72° |
| 2026-05-05 08:36 | 49.77918 | 19.11085 | 34909 ft | 476 kts | 72° |
| 2026-05-05 08:36 | 49.79952 | 19.20849 | 34915 ft | 476 kts | 72° |
| 2026-05-05 08:37 | 49.81973 | 19.30608 | 34920 ft | 476 kts | 72° |
| 2026-05-05 08:37 | 49.83980 | 19.40362 | 34921 ft | 475 kts | 72° |
| 2026-05-05 08:38 | 49.85960 | 19.50046 | 34930 ft | 474 kts | 72° |
| 2026-05-05 08:38 | 49.87696 | 19.58579 | 34921 ft | 474 kts | 72° |
| 2026-05-05 08:39 | 49.89676 | 19.68346 | 34917 ft | 474 kts | 72° |
| 2026-05-05 08:39 | 49.91641 | 19.78092 | 34915 ft | 473 kts | 72° |
| 2026-05-05 08:40 | 49.93549 | 19.87880 | 34912 ft | 473 kts | 77° |
| 2026-05-05 08:40 | 49.94122 | 19.98009 | 34932 ft | 471 kts | 92° |
| 2026-05-05 08:41 | 49.93968 | 20.08190 | 34918 ft | 472 kts | 91° |
| 2026-05-05 08:41 | 49.93915 | 20.18420 | 34312 ft | 478 kts | 91° |
| 2026-05-05 08:41 | 49.93890 | 20.23492 | 33582 ft | 475 kts | 91° |
| 2026-05-05 08:42 | 49.93860 | 20.28599 | 32752 ft | 475 kts | 91° |
| 2026-05-05 08:42 | 49.93827 | 20.33743 | 31924 ft | 475 kts | 91° |
| 2026-05-05 08:42 | 49.93791 | 20.38871 | 31061 ft | 475 kts | 91° |
| 2026-05-05 08:42 | 49.93752 | 20.44025 | 30156 ft | 477 kts | 91° |
| 2026-05-05 08:43 | 49.93711 | 20.49172 | 29099 ft | 478 kts | 91° |
| 2026-05-05 08:43 | 49.93668 | 20.54341 | 28043 ft | 478 kts | 91° |
| 2026-05-05 08:43 | 49.93623 | 20.59500 | 26972 ft | 478 kts | 91° |
| 2026-05-05 08:43 | 49.93577 | 20.64621 | 26248 ft | 471 kts | 91° |
| 2026-05-05 08:44 | 49.93529 | 20.69685 | 25471 ft | 466 kts | 91° |
| 2026-05-05 08:44 | 49.93479 | 20.74682 | 24763 ft | 460 kts | 91° |
| 2026-05-05 08:44 | 49.93431 | 20.79610 | 24092 ft | 455 kts | 92° |
| 2026-05-05 08:44 | 49.93382 | 20.84514 | 23322 ft | 452 kts | 92° |
| 2026-05-05 08:45 | 49.93331 | 20.89382 | 22472 ft | 450 kts | 92° |
| 2026-05-05 08:45 | 49.93280 | 20.94151 | 21690 ft | 445 kts | 92° |
| 2026-05-05 08:45 | 49.93227 | 20.98924 | 20949 ft | 440 kts | 92° |
| 2026-05-05 08:45 | 49.93172 | 21.03653 | 20200 ft | 435 kts | 92° |
| 2026-05-05 08:46 | 49.93117 | 21.08334 | 19476 ft | 431 kts | 92° |
| 2026-05-05 08:46 | 49.93059 | 21.12971 | 18746 ft | 428 kts | 92° |
| 2026-05-05 08:46 | 49.93015 | 21.17579 | 17951 ft | 426 kts | 90° |
| 2026-05-05 08:46 | 49.93344 | 21.22154 | 17073 ft | 426 kts | 81° |
| 2026-05-05 08:47 | 49.93898 | 21.26649 | 16315 ft | 422 kts | 80° |
| 2026-05-05 08:47 | 49.94459 | 21.31101 | 15588 ft | 418 kts | 81° |
| 2026-05-05 08:47 | 49.94983 | 21.35518 | 14872 ft | 414 kts | 82° |
| 2026-05-05 08:47 | 49.95471 | 21.39909 | 14162 ft | 411 kts | 82° |
| 2026-05-05 08:48 | 49.95942 | 21.44291 | 13382 ft | 409 kts | 82° |
| 2026-05-05 08:48 | 49.96408 | 21.48638 | 12626 ft | 406 kts | 82° |
| 2026-05-05 08:48 | 49.96870 | 21.52944 | 11893 ft | 402 kts | 82° |
| 2026-05-05 08:48 | 49.97328 | 21.57213 | 11200 ft | 399 kts | 82° |
| 2026-05-05 08:49 | 49.97780 | 21.61418 | 10869 ft | 386 kts | 82° |
| 2026-05-05 08:49 | 49.98207 | 21.65397 | 10691 ft | 371 kts | 82° |
| 2026-05-05 08:49 | 49.98619 | 21.69279 | 10510 ft | 357 kts | 82° |
| 2026-05-05 08:49 | 49.99015 | 21.73021 | 10381 ft | 344 kts | 83° |
| 2026-05-05 08:50 | 49.99397 | 21.76634 | 10214 ft | 333 kts | 82° |
| 2026-05-05 08:50 | 49.99765 | 21.80126 | 10082 ft | 323 kts | 83° |
| 2026-05-05 08:50 | 50.00122 | 21.83534 | 9930 ft | 315 kts | 83° |
| 2026-05-05 08:50 | 50.00466 | 21.86819 | 9902 ft | 302 kts | 83° |
| 2026-05-05 08:51 | 50.00806 | 21.90091 | 9341 ft | 309 kts | 83° |
| 2026-05-05 08:51 | 50.01149 | 21.93390 | 8945 ft | 310 kts | 83° |
| 2026-05-05 08:51 | 50.01492 | 21.96696 | 8604 ft | 309 kts | 83° |
| 2026-05-05 08:51 | 50.01834 | 21.99989 | 8265 ft | 308 kts | 83° |
| 2026-05-05 08:52 | 50.02166 | 22.03264 | 7932 ft | 305 kts | 85° |
| 2026-05-05 08:52 | 50.02290 | 22.06528 | 7574 ft | 299 kts | 92° |
| 2026-05-05 08:52 | 50.02268 | 22.09707 | 7216 ft | 289 kts | 94° |
| 2026-05-05 08:52 | 50.02231 | 22.12750 | 6900 ft | 280 kts | 93° |
| 2026-05-05 08:53 | 50.02213 | 22.15745 | 6502 ft | 275 kts | 93° |
| 2026-05-05 08:53 | 50.02208 | 22.18753 | 6103 ft | 279 kts | 92° |
| 2026-05-05 08:53 | 50.02208 | 22.21759 | 5817 ft | 277 kts | 94° |
| 2026-05-05 08:53 | 50.02203 | 22.24743 | 5611 ft | 274 kts | 93° |
| 2026-05-05 08:54 | 50.02301 | 22.27687 | 5435 ft | 274 kts | 77° |
| 2026-05-05 08:54 | 50.03186 | 22.30255 | 5373 ft | 269 kts | 48° |
| 2026-05-05 08:54 | 50.04696 | 22.31884 | 5272 ft | 262 kts | 19° |
| 2026-05-05 08:54 | 50.06433 | 22.32421 | 5230 ft | 248 kts | 0° |
| 2026-05-05 08:55 | 50.08103 | 22.32333 | 5087 ft | 232 kts | 341° |
| 2026-05-05 08:55 | 50.09443 | 22.31224 | 4978 ft | 209 kts | 311° |
| 2026-05-05 08:55 | 50.10261 | 22.29509 | 4900 ft | 187 kts | 290° |
| 2026-05-05 08:55 | 50.10608 | 22.27669 | 4741 ft | 169 kts | 269° |
| 2026-05-05 08:56 | 50.10644 | 22.25923 | 4507 ft | 161 kts | 266° |
| 2026-05-05 08:56 | 50.10674 | 22.24184 | 4223 ft | 159 kts | 266° |
| 2026-05-05 08:56 | 50.10704 | 22.22548 | 4056 ft | 147 kts | 264° |
| 2026-05-05 08:56 | 50.10728 | 22.20940 | 3728 ft | 150 kts | 266° |
| 2026-05-05 08:57 | 50.10757 | 22.19332 | 3557 ft | 143 kts | 266° |
| 2026-05-05 08:57 | 50.10785 | 22.17853 | 3395 ft | 135 kts | 264° |
| 2026-05-05 08:57 | 50.10821 | 22.16394 | 3178 ft | 132 kts | 268° |
| 2026-05-05 08:57 | 50.10850 | 22.14950 | 2911 ft | 128 kts | 262° |
| 2026-05-05 08:58 | 50.10858 | 22.13594 | 2503 ft | 125 kts | 263° |
| 2026-05-05 08:58 | 50.10875 | 22.12218 | 2139 ft | 126 kts | 264° |
| 2026-05-05 08:58 | 50.10888 | 22.10849 | 1750 ft | 127 kts | 264° |
| 2026-05-05 08:58 | 50.10902 | 22.09505 | 1419 ft | 123 kts | 263° |
| 2026-05-05 08:59 | 50.10915 | 22.08219 | 1174 ft | 118 kts | 266° |
| 2026-05-05 08:59 | 50.10931 | 22.06909 | 1064 ft | 122 kts | 266° |
| 2026-05-05 08:59 | 50.10939 | 22.05587 | 855 ft | 122 kts | 267° |
| 2026-05-05 08:59 | 50.10971 | 22.04286 | 685 ft | 119 kts | 265° |
| 2026-05-05 09:00 | 50.10976 | 22.03140 | 693 ft | 84 kts | 270° |
| 2026-05-05 09:00 | 50.10985 | 22.02495 | 695 ft | 50 kts | 272° |
| 2026-05-05 09:00 | 50.10995 | 22.02080 | 693 ft | 32 kts | 270° |
| 2026-05-05 09:00 | 50.10998 | 22.01754 | 694 ft | 29 kts | 275° |
| 2026-05-05 09:01 | 50.11005 | 22.01450 | 703 ft | 27 kts | 271° |
| 2026-05-05 09:01 | 50.11043 | 22.01176 | 700 ft | 25 kts | 298° |
| 2026-05-05 09:01 | 50.11093 | 22.01042 | 697 ft | 0 kts | 299° |
| 2026-05-05 09:02 | 50.11117 | 22.00988 | 699 ft | 13 kts | 321° |
| 2026-05-05 09:02 | 50.11171 | 22.01081 | 699 ft | 20 kts | 92° |
| 2026-05-05 09:02 | 50.11169 | 22.01301 | 699 ft | 17 kts | 91° |
| 2026-05-05 09:03 | 50.11166 | 22.01482 | 698 ft | 17 kts | 91° |
| 2026-05-05 09:03 | 50.11164 | 22.01665 | 691 ft | 17 kts | 91° |
| 2026-05-05 09:03 | 50.11162 | 22.01842 | 696 ft | 16 kts | 91° |
| 2026-05-05 09:03 | 50.11159 | 22.02011 | 693 ft | 15 kts | 91° |
| 2026-05-05 09:04 | 50.11157 | 22.02173 | 691 ft | 15 kts | 90° |
| 2026-05-05 09:04 | 50.11194 | 22.02297 | 689 ft | 14 kts | 15° |
| 2026-05-05 09:04 | 50.11286 | 22.02304 | 683 ft | 13 kts | 2° |
| 2026-05-05 09:04 | 50.11324 | 22.02414 | 689 ft | 13 kts | 88° |
| 2026-05-05 09:05 | 50.11326 | 22.02524 | 686 ft | 4 kts | 67° |
| 2026-05-05 09:05 | 50.11376 | 22.02533 | 689 ft | 10 kts | 1° |
| 2026-05-05 09:05 | 50.11406 | 22.02534 | 687 ft | 2 kts | 1° |
| 2026-05-05 09:05 | 50.11412 | 22.02535 | 687 ft | 0 kts | 1° |